Time;durP1;ratioP1;P1;durP2;ratioP2;P2;SDS_P1;SDS_P2;PMS_P1;PMS_P2;Temp;Humidity;BMP_temperature;BMP_pressure;BME280_temperature;BME280_humidity;BME280_pressure;Samples;Min_cycle;Max_cycle;Signal;HPM_P1;HPM_P2
2022/11/23 00:01:39;;;;;;;48.77;29.00;;;1.30;99.90;;;;;;4952314;28;20881;-51
2022/11/23 00:04:10;;;;;;;48.67;27.60;;;1.30;99.90;;;;;;4955366;28;20474;-52
2022/11/23 00:06:37;;;;;;;51.23;29.67;;;1.30;99.90;;;;;;4953198;29;20549;-51
2022/11/23 00:09:04;;;;;;;47.03;29.37;;;1.30;99.90;;;;;;4953358;29;20478;-52
2022/11/23 00:11:30;;;;;;;46.87;27.37;;;1.30;99.90;;;;;;4957091;28;20493;-51
2022/11/23 00:13:57;;;;;;;57.77;29.20;;;1.20;99.90;;;;;;4957348;28;20534;-51
2022/11/23 00:16:25;;;;;;;63.93;35.13;;;1.20;99.90;;;;;;4955339;28;20447;-52
2022/11/23 00:18:53;;;;;;;48.43;28.57;;;1.30;99.90;;;;;;4954927;29;20466;-52
2022/11/23 00:21:22;;;;;;;48.30;30.50;;;1.20;99.90;;;;;;4948693;28;20474;-52
2022/11/23 00:23:49;;;;;;;46.13;29.20;;;1.20;99.90;;;;;;4952145;29;20466;-52
2022/11/23 00:26:18;;;;;;;53.37;31.67;;;1.30;99.90;;;;;;4952128;28;20482;-52
2022/11/23 00:28:45;;;;;;;46.93;30.10;;;1.20;99.90;;;;;;4953920;28;20517;-52
2022/11/23 00:31:13;;;;;;;46.67;28.67;;;1.20;99.90;;;;;;4949378;28;20494;-50
2022/11/23 00:33:40;;;;;;;50.47;29.23;;;1.20;99.90;;;;;;4954277;29;20822;-51
2022/11/23 00:36:08;;;;;;;50.90;30.33;;;1.20;99.90;;;;;;4952207;28;20593;-52
2022/11/23 00:38:36;;;;;;;55.07;30.60;;;1.20;99.90;;;;;;4953657;29;21002;-51
2022/11/23 00:41:06;;;;;;;48.63;28.70;;;1.20;99.90;;;;;;4955909;28;20828;-52
2022/11/23 00:43:33;;;;;;;45.63;28.50;;;1.10;99.90;;;;;;4955327;29;20450;-51
2022/11/23 00:46:08;;;;;;;51.30;30.83;;;1.20;99.90;;;;;;4950861;28;20945;-51
2022/11/23 00:48:35;;;;;;;48.63;27.30;;;1.20;99.90;;;;;;4947924;28;20493;-51
2022/11/23 00:51:01;;;;;;;48.77;27.90;;;1.20;99.90;;;;;;4950369;28;20548;-52
2022/11/23 00:53:28;;;;;;;48.83;28.33;;;1.20;99.90;;;;;;4952506;28;20462;-52
2022/11/23 00:55:57;;;;;;;45.50;27.50;;;1.30;99.90;;;;;;4951857;28;20536;-51
2022/11/23 00:58:25;;;;;;;48.73;28.37;;;1.30;99.90;;;;;;4951425;29;20461;-51
2022/11/23 01:01:00;;;;;;;48.13;27.93;;;1.30;99.90;;;;;;4951810;28;20541;-50
2022/11/23 01:03:28;;;;;;;49.10;28.93;;;1.30;99.90;;;;;;4946865;28;20470;-50
2022/11/23 01:05:55;;;;;;;51.20;28.93;;;1.30;99.90;;;;;;4951997;28;20462;-51
2022/11/23 01:08:21;;;;;;;50.80;28.87;;;1.30;99.90;;;;;;4953639;28;20439;-51
2022/11/23 01:10:48;;;;;;;47.10;26.20;;;1.40;99.90;;;;;;4949143;28;20542;-55
2022/11/23 01:13:16;;;;;;;47.67;27.93;;;1.30;99.90;;;;;;4949858;28;21012;-55
2022/11/23 01:15:49;;;;;;;47.80;27.73;;;1.40;99.90;;;;;;4946971;28;21005;-54
2022/11/23 01:18:16;;;;;;;46.90;27.47;;;1.40;99.90;;;;;;4952573;28;20976;-54
2022/11/23 01:20:42;;;;;;;45.30;28.27;;;1.40;99.90;;;;;;4949059;28;20490;-54
2022/11/23 01:23:09;;;;;;;43.97;28.30;;;1.40;99.90;;;;;;4958709;28;20524;-54
2022/11/23 01:25:36;;;;;;;47.23;27.97;;;1.40;99.90;;;;;;4950092;28;20466;-53
2022/11/23 01:28:03;;;;;;;47.40;26.43;;;1.40;99.90;;;;;;4951680;28;20534;-53
2022/11/23 01:30:30;;;;;;;45.23;26.83;;;1.40;99.90;;;;;;4952179;28;20506;-53
2022/11/23 01:32:57;;;;;;;49.03;27.50;;;1.40;99.90;;;;;;4950268;28;20463;-55
2022/11/23 01:35:24;;;;;;;42.70;27.03;;;1.40;99.90;;;;;;4952819;28;20466;-55
2022/11/23 01:37:50;;;;;;;45.77;26.47;;;1.40;99.90;;;;;;4951699;29;20883;-55
2022/11/23 01:40:17;;;;;;;49.13;27.30;;;1.40;99.90;;;;;;4950656;28;20482;-54
2022/11/23 01:42:49;;;;;;;46.93;27.97;;;1.40;99.90;;;;;;4948723;28;20467;-55
2022/11/23 01:45:35;;;;;;;46.47;28.60;;;1.40;99.90;;;;;;4952697;28;20466;-54
2022/11/23 01:48:04;;;;;;;41.60;25.20;;;1.40;99.90;;;;;;4954543;28;20512;-53
2022/11/23 01:50:31;;;;;;;46.40;28.50;;;1.40;99.90;;;;;;4953292;28;20832;-53
2022/11/23 01:52:58;;;;;;;42.50;26.33;;;1.40;99.90;;;;;;4950757;28;20470;-54
2022/11/23 01:55:26;;;;;;;58.53;27.90;;;1.50;99.90;;;;;;4940432;28;20499;-54
2022/11/23 01:57:53;;;;;;;41.80;26.40;;;1.50;99.90;;;;;;4946364;29;20459;-54
2022/11/23 02:00:20;;;;;;;43.43;27.60;;;1.50;99.90;;;;;;4948620;28;20545;-53
2022/11/23 02:02:53;;;;;;;44.93;26.13;;;1.50;99.90;;;;;;4952010;28;20591;-54
2022/11/23 02:05:23;;;;;;;42.73;26.50;;;1.50;99.90;;;;;;4949358;28;20470;-55
2022/11/23 02:07:50;;;;;;;45.97;26.40;;;1.50;99.90;;;;;;4950830;28;20482;-54
2022/11/23 02:10:17;;;;;;;47.93;27.53;;;1.50;99.90;;;;;;4948332;28;20485;-54
2022/11/23 02:12:44;;;;;;;43.47;28.00;;;1.50;99.90;;;;;;4946653;29;20523;-55
2022/11/23 02:15:11;;;;;;;51.97;28.50;;;1.60;99.90;;;;;;4949289;29;20540;-55
2022/11/23 02:17:37;;;;;;;41.33;25.23;;;1.60;99.90;;;;;;4949675;29;20453;-53
2022/11/23 02:20:10;;;;;;;45.20;26.20;;;1.60;99.90;;;;;;4956904;28;20485;-53
2022/11/23 02:22:43;;;;;;;45.00;27.03;;;1.60;99.90;;;;;;4949324;29;20542;-54
2022/11/23 02:25:19;;;;;;;39.97;25.27;;;1.60;99.90;;;;;;4952611;29;20490;-54
2022/11/23 02:27:47;;;;;;;43.53;24.80;;;1.60;99.90;;;;;;4950630;28;20482;-54
2022/11/23 02:30:14;;;;;;;43.50;26.43;;;1.70;99.90;;;;;;4953124;28;20490;-54
2022/11/23 02:32:42;;;;;;;52.83;29.33;;;1.70;99.90;;;;;;4951394;28;20498;-54
2022/11/23 02:35:10;;;;;;;46.77;28.30;;;1.70;99.90;;;;;;4955526;28;20474;-56
2022/11/23 02:37:37;;;;;;;45.07;26.03;;;1.70;99.90;;;;;;4957950;28;20461;-55
2022/11/23 02:40:09;;;;;;;42.87;27.53;;;1.70;99.90;;;;;;4952593;28;20497;-56
2022/11/23 02:42:37;;;;;;;44.47;26.13;;;1.70;99.90;;;;;;4951334;28;20462;-54
2022/11/23 02:45:16;;;;;;;39.83;24.57;;;1.70;99.90;;;;;;4950407;28;20520;-53
2022/11/23 02:47:42;;;;;;;43.93;26.80;;;1.60;99.90;;;;;;4944072;28;21012;-55
2022/11/23 02:50:09;;;;;;;42.90;26.07;;;1.60;99.90;;;;;;4948201;28;20550;-49
2022/11/23 02:52:35;;;;;;;45.23;26.53;;;1.60;99.90;;;;;;4948947;28;20539;-49
2022/11/23 02:55:02;;;;;;;39.80;25.20;;;1.60;99.90;;;;;;4954649;28;20560;-49
2022/11/23 02:57:28;;;;;;;48.20;26.20;;;1.70;99.90;;;;;;4954529;29;20454;-50
2022/11/23 02:59:55;;;;;;;44.13;26.57;;;1.60;99.90;;;;;;4953195;29;21062;-50
2022/11/23 03:02:23;;;;;;;39.47;24.87;;;1.60;99.90;;;;;;4953927;28;20462;-49
2022/11/23 03:04:49;;;;;;;46.03;26.10;;;1.60;99.90;;;;;;4946255;28;20530;-50
2022/11/23 03:07:16;;;;;;;38.73;24.80;;;1.60;99.90;;;;;;4945934;29;20486;-50
2022/11/23 03:09:43;;;;;;;46.43;26.20;;;1.70;99.90;;;;;;4951912;28;20478;-49
2022/11/23 03:12:09;;;;;;;43.73;26.50;;;1.60;99.90;;;;;;4952932;28;20458;-49
2022/11/23 03:14:37;;;;;;;41.57;25.30;;;1.70;99.90;;;;;;4949980;28;20521;-50
2022/11/23 03:17:04;;;;;;;46.10;25.87;;;1.60;99.90;;;;;;4953032;29;20473;-49
2022/11/23 03:19:32;;;;;;;41.63;26.57;;;1.60;99.90;;;;;;4952678;28;20540;-50
2022/11/23 03:21:58;;;;;;;42.10;25.77;;;1.60;99.90;;;;;;4952420;28;20473;-49
2022/11/23 03:24:25;;;;;;;41.60;25.67;;;1.60;99.90;;;;;;4952579;28;20462;-50
2022/11/23 03:26:52;;;;;;;37.57;25.03;;;1.60;99.90;;;;;;4962490;28;20486;-50
2022/11/23 03:29:18;;;;;;;41.03;25.07;;;1.50;99.90;;;;;;4957530;28;21123;-49
2022/11/23 03:31:45;;;;;;;42.23;24.60;;;1.50;99.90;;;;;;4951012;28;20524;-49
2022/11/23 03:34:11;;;;;;;39.83;24.40;;;1.50;99.90;;;;;;4954419;28;20960;-51
2022/11/23 03:36:39;;;;;;;39.20;24.73;;;1.40;99.90;;;;;;4954561;29;20944;-51
2022/11/23 03:39:06;;;;;;;41.80;24.70;;;1.40;99.90;;;;;;4953971;29;20865;-51
2022/11/23 03:41:33;;;;;;;37.97;24.63;;;1.30;99.90;;;;;;4958383;28;20888;-50
2022/11/23 03:43:59;;;;;;;42.13;25.67;;;1.30;99.90;;;;;;4955209;29;20482;-49
2022/11/23 03:46:26;;;;;;;39.77;25.47;;;1.30;99.90;;;;;;4956065;29;20450;-49
2022/11/23 03:48:53;;;;;;;34.90;22.87;;;1.30;99.90;;;;;;4955095;28;20486;-49
2022/11/23 03:51:19;;;;;;;40.63;26.10;;;1.30;99.90;;;;;;4958160;28;20509;-49
2022/11/23 03:53:47;;;;;;;41.97;25.23;;;1.20;99.90;;;;;;4954845;28;20470;-51
2022/11/23 03:56:14;;;;;;;40.37;24.50;;;1.20;99.90;;;;;;4965655;28;20465;-49
2022/11/23 03:58:40;;;;;;;39.47;24.20;;;1.20;99.90;;;;;;4963447;28;20513;-51
2022/11/23 04:01:07;;;;;;;35.30;24.50;;;1.20;99.90;;;;;;4953015;28;20517;-50
2022/11/23 04:03:34;;;;;;;41.53;25.20;;;1.20;99.90;;;;;;4949603;28;20458;-51
2022/11/23 04:06:00;;;;;;;45.83;26.03;;;1.20;99.90;;;;;;4952887;29;20536;-50
2022/11/23 04:08:27;;;;;;;42.50;25.50;;;1.20;99.90;;;;;;4952382;29;20991;-50
2022/11/23 04:10:57;;;;;;;39.60;23.90;;;1.20;99.90;;;;;;4954491;29;20518;-50
2022/11/23 04:13:25;;;;;;;46.43;24.40;;;1.30;99.90;;;;;;4954208;28;20462;-50
2022/11/23 04:15:52;;;;;;;40.67;24.30;;;1.30;99.90;;;;;;4955445;29;20513;-51
2022/11/23 04:18:18;;;;;;;41.93;25.80;;;1.30;99.90;;;;;;4959354;28;20876;-51
2022/11/23 04:20:45;;;;;;;45.13;26.50;;;1.30;99.90;;;;;;4943275;28;20489;-54
2022/11/23 04:23:11;;;;;;;39.70;24.20;;;1.30;99.90;;;;;;4952915;28;20545;-55
2022/11/23 04:25:38;;;;;;;35.10;23.83;;;1.30;99.90;;;;;;4961111;28;20438;-55
2022/11/23 04:28:06;;;;;;;36.00;24.70;;;1.30;99.90;;;;;;4954304;29;20482;-54
2022/11/23 04:30:32;;;;;;;37.83;23.70;;;1.40;99.90;;;;;;4953157;29;20853;-54
2022/11/23 04:32:59;;;;;;;38.90;23.47;;;1.40;99.90;;;;;;4952801;29;20474;-54
2022/11/23 04:35:26;;;;;;;42.50;25.43;;;1.40;99.90;;;;;;4948228;29;20463;-53
2022/11/23 04:37:52;;;;;;;39.97;25.60;;;1.40;99.90;;;;;;4938467;29;20439;-54
2022/11/23 04:40:19;;;;;;;38.07;23.57;;;1.40;99.90;;;;;;4946932;29;20914;-55
2022/11/23 04:42:45;;;;;;;41.03;25.67;;;1.40;99.90;;;;;;4954325;29;20462;-56
2022/11/23 04:45:13;;;;;;;36.97;24.90;;;1.40;99.90;;;;;;4954116;29;20513;-54
2022/11/23 04:47:40;;;;;;;36.43;23.50;;;1.40;99.90;;;;;;4954420;29;21050;-54
2022/11/23 04:50:07;;;;;;;44.97;25.90;;;1.40;99.90;;;;;;4953337;28;20498;-55
2022/11/23 04:52:34;;;;;;;39.33;25.67;;;1.40;99.90;;;;;;4957317;28;20521;-55
2022/11/23 04:55:00;;;;;;;36.53;23.40;;;1.40;99.90;;;;;;4952202;29;20475;-54
2022/11/23 04:57:27;;;;;;;38.70;25.20;;;1.40;99.90;;;;;;4962335;28;20958;-55
2022/11/23 04:59:53;;;;;;;38.87;24.60;;;1.40;99.90;;;;;;4956743;28;20844;-55
2022/11/23 05:02:21;;;;;;;38.30;23.90;;;1.40;99.90;;;;;;4953222;28;20462;-55
2022/11/23 05:04:48;;;;;;;39.87;25.63;;;1.40;99.90;;;;;;4955774;28;20525;-53
2022/11/23 05:07:14;;;;;;;35.17;23.70;;;1.40;99.90;;;;;;4939196;28;20451;-55
2022/11/23 05:09:42;;;;;;;38.77;22.87;;;1.40;99.90;;;;;;4950506;28;20494;-53
2022/11/23 05:12:09;;;;;;;39.50;24.80;;;1.40;99.90;;;;;;4949302;28;20498;-55
2022/11/23 05:14:35;;;;;;;40.50;24.70;;;1.50;99.90;;;;;;4953238;28;20459;-53
2022/11/23 05:17:02;;;;;;;39.23;23.83;;;1.40;99.90;;;;;;4952494;28;20512;-53
2022/11/23 05:19:30;;;;;;;40.20;23.90;;;1.50;99.90;;;;;;4951135;28;20890;-53
2022/11/23 05:21:56;;;;;;;44.37;25.10;;;1.40;99.90;;;;;;4944766;28;20467;-53
2022/11/23 05:24:23;;;;;;;41.37;25.50;;;1.40;99.90;;;;;;4957628;28;20510;-52
2022/11/23 05:26:49;;;;;;;35.67;22.90;;;1.50;99.90;;;;;;4953405;28;20516;-52
2022/11/23 05:29:16;;;;;;;40.10;25.67;;;1.60;99.90;;;;;;4947944;28;20502;-52
2022/11/23 05:31:43;;;;;;;38.33;24.67;;;1.60;99.90;;;;;;4947464;28;20870;-51
2022/11/23 05:34:09;;;;;;;34.50;23.17;;;1.50;99.90;;;;;;4948378;28;20467;-51
2022/11/23 05:36:37;;;;;;;37.67;23.73;;;1.50;99.90;;;;;;4957676;28;20469;-51
2022/11/23 05:39:04;;;;;;;37.83;23.73;;;1.50;99.90;;;;;;4952523;28;20466;-53
2022/11/23 05:41:30;;;;;;;37.67;21.93;;;1.50;99.90;;;;;;4946291;28;20556;-52
2022/11/23 05:43:57;;;;;;;37.20;25.37;;;1.40;99.90;;;;;;4948484;28;20467;-52
2022/11/23 05:46:23;;;;;;;39.07;25.03;;;1.50;99.90;;;;;;4948006;28;20466;-51
2022/11/23 05:48:50;;;;;;;36.80;22.13;;;1.50;99.90;;;;;;4952457;28;20481;-53
2022/11/23 05:51:16;;;;;;;34.13;22.70;;;1.50;99.90;;;;;;4943071;28;21272;-51
2022/11/23 05:53:44;;;;;;;34.60;22.17;;;1.50;99.90;;;;;;4943819;28;20486;-51
2022/11/23 05:56:11;;;;;;;34.70;22.20;;;1.50;99.90;;;;;;4949292;28;20532;-51
2022/11/23 05:58:38;;;;;;;35.40;22.90;;;1.40;99.90;;;;;;4951987;28;20459;-52
2022/11/23 06:01:04;;;;;;;37.40;23.83;;;1.50;99.90;;;;;;4944345;29;20904;-51
2022/11/23 06:03:31;;;;;;;35.87;23.73;;;1.40;99.90;;;;;;4950233;28;20841;-51
2022/11/23 06:05:58;;;;;;;32.40;21.17;;;1.40;99.90;;;;;;4943876;28;20478;-51
2022/11/23 06:08:24;;;;;;;38.30;24.87;;;1.40;99.90;;;;;;4949527;28;20479;-51
2022/11/23 06:10:52;;;;;;;34.73;23.17;;;1.40;99.90;;;;;;4949825;28;20535;-51
2022/11/23 06:13:19;;;;;;;33.50;22.00;;;1.30;99.90;;;;;;4947432;28;20908;-52
2022/11/23 06:15:45;;;;;;;33.57;23.00;;;1.30;99.90;;;;;;4950541;28;20457;-51
2022/11/23 06:18:12;;;;;;;36.37;23.00;;;1.30;99.90;;;;;;4956267;28;20511;-51
2022/11/23 06:20:38;;;;;;;32.87;21.47;;;1.30;99.90;;;;;;4948988;28;20549;-51
2022/11/23 06:23:05;;;;;;;30.37;21.90;;;1.30;99.90;;;;;;4948695;29;20888;-52
2022/11/23 06:25:31;;;;;;;34.07;20.97;;;1.40;99.90;;;;;;4952336;28;20505;-51
2022/11/23 06:28:01;;;;;;;31.73;22.33;;;1.30;99.90;;;;;;4951514;28;20493;-52
2022/11/23 06:30:29;;;;;;;32.93;22.60;;;1.40;99.90;;;;;;4941767;29;21031;-52
2022/11/23 06:32:56;;;;;;;39.40;22.27;;;1.30;99.90;;;;;;4952972;29;20465;-52
2022/11/23 06:35:23;;;;;;;36.20;22.97;;;1.40;99.90;;;;;;4950569;29;20999;-52
2022/11/23 06:37:50;;;;;;;34.50;22.20;;;1.30;99.90;;;;;;4955283;29;20509;-51
2022/11/23 06:40:17;;;;;;;35.73;21.90;;;1.30;99.90;;;;;;4954337;29;20485;-53
2022/11/23 06:42:44;;;;;;;31.33;21.40;;;1.30;99.90;;;;;;4955688;29;20466;-51
2022/11/23 06:45:12;;;;;;;31.00;20.33;;;1.30;99.90;;;;;;4953622;29;20466;-51
2022/11/23 06:47:39;;;;;;;39.17;23.27;;;1.30;99.90;;;;;;4952436;29;20462;-52
2022/11/23 06:50:06;;;;;;;30.73;21.33;;;1.20;99.90;;;;;;4953581;29;21518;-52
2022/11/23 06:52:33;;;;;;;35.53;22.20;;;1.10;99.90;;;;;;4952987;29;20466;-52
2022/11/23 06:55:00;;;;;;;28.20;19.90;;;1.10;99.90;;;;;;4956176;29;20462;-51
2022/11/23 06:57:26;;;;;;;33.63;22.27;;;1.10;99.90;;;;;;4953166;29;20952;-51
2022/11/23 06:59:53;;;;;;;36.80;24.37;;;1.00;99.90;;;;;;4956725;29;20904;-51
2022/11/23 07:02:21;;;;;;;33.43;21.03;;;1.00;99.90;;;;;;4949274;29;20466;-52
2022/11/23 07:04:47;;;;;;;30.57;20.40;;;1.00;99.90;;;;;;4956778;28;20450;-51
2022/11/23 07:07:14;;;;;;;32.27;22.17;;;1.00;99.90;;;;;;4946087;29;20951;-52
2022/11/23 07:09:40;;;;;;;33.07;22.50;;;0.90;99.90;;;;;;4956648;29;20537;-50
2022/11/23 07:12:07;;;;;;;34.80;23.23;;;0.90;99.90;;;;;;4953824;29;20462;-51
2022/11/23 07:14:34;;;;;;;34.60;22.43;;;0.90;99.90;;;;;;4950233;29;20835;-52
2022/11/23 07:17:01;;;;;;;35.47;24.40;;;0.90;99.90;;;;;;4950311;29;20964;-51
2022/11/23 07:19:29;;;;;;;40.50;24.03;;;0.90;99.90;;;;;;4948745;29;20537;-51
2022/11/23 07:21:55;;;;;;;38.10;24.60;;;0.80;99.90;;;;;;4951544;28;20533;-51
2022/11/23 07:24:22;;;;;;;37.10;24.23;;;0.90;99.90;;;;;;4950707;29;20516;-52
2022/11/23 07:26:49;;;;;;;29.40;21.47;;;1.00;99.90;;;;;;4950031;29;20466;-51
2022/11/23 07:29:16;;;;;;;35.70;22.47;;;1.00;99.90;;;;;;4945235;28;20489;-51
2022/11/23 07:31:43;;;;;;;31.43;21.10;;;1.00;99.90;;;;;;4951205;29;20493;-51
2022/11/23 07:34:09;;;;;;;39.50;24.27;;;1.10;99.90;;;;;;4956034;29;20454;-52
2022/11/23 07:36:38;;;;;;;41.37;26.60;;;1.20;99.90;;;;;;4951598;28;20466;-51
2022/11/23 07:39:04;;;;;;;38.67;23.60;;;1.30;99.90;;;;;;4955105;29;20462;-51
2022/11/23 07:41:31;;;;;;;60.67;35.47;;;1.30;99.90;;;;;;4951058;29;20521;-51
2022/11/23 07:43:57;;;;;;;81.57;41.70;;;1.40;99.90;;;;;;4952880;28;20474;-52
2022/11/23 07:46:24;;;;;;;78.80;41.33;;;1.50;99.90;;;;;;4951716;28;20466;-52
2022/11/23 07:48:53;;;;;;;40.70;25.90;;;1.60;99.90;;;;;;4940048;28;20526;-52
2022/11/23 07:51:20;;;;;;;55.70;31.17;;;1.60;99.90;;;;;;4947637;29;20554;-52
2022/11/23 07:53:48;;;;;;;48.77;29.30;;;1.60;99.90;;;;;;4947352;29;20603;-51
2022/11/23 07:56:14;;;;;;;35.30;23.37;;;1.70;99.90;;;;;;4952533;29;20505;-51
2022/11/23 07:58:41;;;;;;;33.23;21.40;;;1.70;99.90;;;;;;4952885;28;20517;-51
2022/11/23 08:01:08;;;;;;;29.70;20.40;;;1.70;99.90;;;;;;4951550;29;20560;-51
2022/11/23 08:03:35;;;;;;;43.43;25.07;;;1.90;99.90;;;;;;4948975;29;20564;-51
2022/11/23 08:06:01;;;;;;;32.37;21.43;;;1.90;99.90;;;;;;4948864;28;20474;-52
2022/11/23 08:08:28;;;;;;;29.40;20.73;;;2.00;99.90;;;;;;4951543;29;20995;-51
2022/11/23 08:10:56;;;;;;;28.80;20.90;;;2.10;99.90;;;;;;4948934;29;20486;-52
2022/11/23 08:13:23;;;;;;;32.87;21.90;;;2.20;99.90;;;;;;4942814;29;20466;-51
2022/11/23 08:15:50;;;;;;;34.03;22.03;;;2.20;99.90;;;;;;4946397;28;20565;-51
2022/11/23 08:18:17;;;;;;;33.70;21.33;;;2.20;99.90;;;;;;4949825;28;21393;-51
2022/11/23 08:20:44;;;;;;;29.60;20.60;;;2.20;1.40;;;;;;4949662;29;21045;-52
2022/11/23 08:23:10;;;;;;;34.40;21.13;;;2.30;99.90;;;;;;4946499;29;20529;-51
2022/11/23 08:25:37;;;;;;;34.17;21.07;;;2.20;99.90;;;;;;4948942;29;20976;-51
2022/11/23 08:28:05;;;;;;;34.80;22.70;;;2.30;99.90;;;;;;4948847;29;20494;-51
2022/11/23 08:30:33;;;;;;;31.70;21.97;;;2.30;99.90;;;;;;4951070;29;20545;-51
2022/11/23 08:33:02;;;;;;;34.73;23.73;;;2.30;99.90;;;;;;4951594;29;21049;-51
2022/11/23 08:35:29;;;;;;;31.20;21.90;;;2.20;99.90;;;;;;4950897;29;20520;-52
2022/11/23 08:37:55;;;;;;;32.80;21.37;;;2.30;99.90;;;;;;4951071;29;20462;-51
2022/11/23 08:40:22;;;;;;;32.63;20.20;;;2.40;99.90;;;;;;4946729;28;20553;-52
2022/11/23 08:42:48;;;;;;;33.10;21.67;;;2.40;99.90;;;;;;4949775;29;20517;-51
2022/11/23 08:45:17;;;;;;;30.50;20.40;;;2.40;99.90;;;;;;4947061;29;20599;-52
2022/11/23 08:47:43;;;;;;;30.67;20.30;;;2.40;99.90;;;;;;4954241;29;20521;-52
2022/11/23 08:50:10;;;;;;;32.10;20.67;;;2.40;99.90;;;;;;4944448;28;20494;-54
2022/11/23 08:52:37;;;;;;;31.27;21.43;;;2.20;99.90;;;;;;4950055;29;20520;-54
2022/11/23 08:55:04;;;;;;;30.73;20.80;;;2.30;99.90;;;;;;4951951;29;20963;-54
2022/11/23 08:57:31;;;;;;;31.13;19.43;;;2.40;99.90;;;;;;4952348;29;20466;-53
2022/11/23 08:59:57;;;;;;;27.13;20.60;;;2.50;99.90;;;;;;4949181;29;20487;-54
2022/11/23 09:02:25;;;;;;;36.87;20.67;;;2.50;99.90;;;;;;4951758;29;20463;-54
2022/11/23 09:04:52;;;;;;;31.97;21.17;;;2.60;99.90;;;;;;4940426;28;20565;-55
2022/11/23 09:07:19;;;;;;;32.23;21.50;;;2.50;99.90;;;;;;4951261;29;20533;-55
2022/11/23 09:09:45;;;;;;;28.10;19.40;;;2.60;99.90;;;;;;4947751;29;20487;-54
2022/11/23 09:12:12;;;;;;;29.17;19.50;;;2.70;99.90;;;;;;4949999;29;20888;-54
2022/11/23 09:14:38;;;;;;;26.73;20.10;;;2.80;99.90;;;;;;4939984;28;20994;-56
2022/11/23 09:17:05;;;;;;;26.70;18.77;;;3.10;99.90;;;;;;4932056;28;20494;-54
2022/11/23 09:19:33;;;;;;;31.33;21.10;;;3.00;99.90;;;;;;4951263;29;20473;-54
2022/11/23 09:22:00;;;;;;;29.83;20.57;;;2.90;99.90;;;;;;4954046;29;20446;-56
2022/11/23 09:24:26;;;;;;;34.53;20.83;;;3.10;99.90;;;;;;4951007;28;20505;-54
2022/11/23 09:26:53;;;;;;;34.53;21.03;;;3.10;99.90;;;;;;4954055;29;20446;-54
2022/11/23 09:29:20;;;;;;;26.93;19.47;;;3.20;99.90;;;;;;4947888;29;20556;-54
2022/11/23 09:31:46;;;;;;;33.33;20.27;;;3.30;99.90;;;;;;4950195;29;20466;-54
2022/11/23 09:34:13;;;;;;;36.00;22.97;;;3.30;99.90;;;;;;4952078;29;20467;-55
2022/11/23 09:36:41;;;;;;;41.00;23.63;;;3.30;99.90;;;;;;4950286;29;20494;-54
2022/11/23 09:39:08;;;;;;;29.73;19.73;;;3.30;99.90;;;;;;4945414;29;20525;-55
2022/11/23 09:42:08;;;;;;;32.20;21.67;;;3.60;99.90;;;;;;4946565;29;20541;-54
2022/11/23 09:44:54;;;;;;;27.87;18.73;;;5.00;99.90;;;;;;4939106;29;20463;-55
2022/11/23 09:47:35;;;;;;;30.57;19.90;;;6.10;99.90;;;;;;4948297;29;20549;-55
2022/11/23 09:50:12;;;;;;;34.47;21.30;;;7.20;99.90;;;;;;4942037;29;20502;-53
2022/11/23 09:52:45;;;;;;;33.67;20.57;;;7.70;99.90;;;;;;4943198;29;20518;-53
2022/11/23 09:55:17;;;;;;;26.13;18.57;;;7.40;99.90;;;;;;4941476;28;20518;-55
2022/11/23 09:57:47;;;;;;;29.70;20.43;;;7.70;99.90;;;;;;4947699;29;20466;-54
2022/11/23 10:00:19;;;;;;;33.53;21.00;;;7.70;99.90;;;;;;4941073;29;20887;-54
2022/11/23 10:02:46;;;;;;;29.80;19.90;;;7.60;99.90;;;;;;4951074;29;20458;-54
2022/11/23 10:05:17;;;;;;;29.23;19.60;;;8.10;99.90;;;;;;4950354;29;20450;-54
2022/11/23 10:07:59;;;;;;;33.47;19.20;;;7.40;99.90;;;;;;4941447;29;20467;-55
2022/11/23 10:10:39;;;;;;;28.07;20.33;;;6.40;99.90;;;;;;4948042;29;20652;-55
2022/11/23 10:13:21;;;;;;;31.57;21.37;;;6.30;99.90;;;;;;4946689;29;20466;-56
2022/11/23 10:15:58;;;;;;;26.57;19.27;;;5.90;99.90;;;;;;4944563;28;20498;-55
2022/11/23 10:18:33;;;;;;;26.17;18.30;;;6.10;99.90;;;;;;4932084;28;21240;-55
2022/11/23 10:21:09;;;;;;;29.17;19.83;;;6.00;99.90;;;;;;4941160;29;20867;-55
2022/11/23 10:23:51;;;;;;;26.37;18.93;;;6.10;99.90;;;;;;4942229;28;20455;-55
2022/11/23 10:26:20;;;;;;;31.70;19.90;;;5.60;99.90;;;;;;4947072;29;20517;-54
2022/11/23 10:28:49;;;;;;;26.43;19.17;;;5.90;98.00;;;;;;4946191;29;20514;-55
2022/11/23 10:31:17;;;;;;;31.17;18.20;;;6.20;99.90;;;;;;4947113;29;20482;-55
2022/11/23 10:33:52;;;;;;;26.77;18.10;;;6.40;99.90;;;;;;4949815;29;20525;-55
2022/11/23 10:36:18;;;;;;;30.23;18.23;;;6.20;99.90;;;;;;4947032;28;20472;-54
2022/11/23 10:38:49;;;;;;;28.97;19.20;;;6.10;99.90;;;;;;4947651;29;20466;-55
2022/11/23 10:41:16;;;;;;;29.93;19.80;;;6.20;99.90;;;;;;4944334;29;20605;-54
2022/11/23 10:43:47;;;;;;;32.33;19.83;;;6.20;99.90;;;;;;4944540;29;20536;-54
2022/11/23 10:46:27;;;;;;;31.10;19.93;;;6.00;95.20;;;;;;4950698;29;20473;-56
2022/11/23 10:48:54;;;;;;;26.97;18.23;;;5.80;81.40;;;;;;4949166;28;20466;-55
2022/11/23 10:51:29;;;;;;;33.03;19.23;;;5.70;79.80;;;;;;4950295;29;20459;-53
2022/11/23 10:54:00;;;;;;;25.50;18.00;;;5.60;77.40;;;;;;4949413;29;20528;-54
2022/11/23 10:56:27;;;;;;;28.20;19.43;;;5.60;64.00;;;;;;4939640;29;20459;-54
2022/11/23 10:58:54;;;;;;;27.90;18.20;;;5.40;69.00;;;;;;4948516;29;20879;-54
2022/11/23 11:01:23;;;;;;;27.10;19.10;;;5.50;63.50;;;;;;4950183;29;20465;-55
2022/11/23 11:03:51;;;;;;;24.73;18.73;;;5.50;60.20;;;;;;4946482;29;20467;-55
2022/11/23 11:06:25;;;;;;;31.70;19.87;;;5.40;59.70;;;;;;4943943;29;20493;-55
2022/11/23 11:08:55;;;;;;;34.93;22.13;;;5.30;47.30;;;;;;4947669;28;20818;-55
2022/11/23 11:11:25;;;;;;;30.07;20.73;;;5.30;49.50;;;;;;4945749;28;20968;-54
2022/11/23 11:14:01;;;;;;;27.60;17.97;;;5.30;45.20;;;;;;4953269;29;20556;-55
2022/11/23 11:16:31;;;;;;;30.50;20.47;;;5.30;58.10;;;;;;4942341;28;20516;-53
2022/11/23 11:18:59;;;;;;;30.27;18.73;;;5.40;50.40;;;;;;4943299;28;20466;-56
2022/11/23 11:21:32;;;;;;;25.10;18.27;;;5.40;44.50;;;;;;4940953;29;20548;-55
2022/11/23 11:24:01;;;;;;;30.50;20.33;;;5.40;45.90;;;;;;4942426;28;20469;-53
2022/11/23 11:26:31;;;;;;;27.43;17.80;;;5.40;47.90;;;;;;4939881;28;20536;-56
2022/11/23 11:29:00;;;;;;;26.60;19.13;;;5.40;46.20;;;;;;4946491;28;20470;-55
2022/11/23 11:31:39;;;;;;;27.33;18.40;;;5.50;49.80;;;;;;4945859;29;20469;-56
2022/11/23 11:34:16;;;;;;;23.23;16.97;;;5.50;42.80;;;;;;4945453;29;20474;-54
2022/11/23 11:36:47;;;;;;;29.93;19.13;;;5.60;51.00;;;;;;4936026;29;20984;-56
2022/11/23 11:39:20;;;;;;;25.23;18.23;;;5.60;59.90;;;;;;4954251;29;20521;-54
2022/11/23 11:41:51;;;;;;;25.50;17.80;;;5.60;58.90;;;;;;4948053;29;20525;-54
2022/11/23 11:44:21;;;;;;;28.73;20.40;;;5.70;50.00;;;;;;4950936;29;20518;-54
2022/11/23 11:46:53;;;;;;;30.10;19.53;;;5.60;62.00;;;;;;4943652;28;20490;-55
2022/11/23 11:49:25;;;;;;;26.50;18.50;;;5.70;44.70;;;;;;4940131;29;20576;-55
2022/11/23 11:51:56;;;;;;;25.57;17.53;;;5.60;52.60;;;;;;4952972;29;21003;-55
2022/11/23 11:54:29;;;;;;;25.00;17.80;;;5.70;45.70;;;;;;4945408;29;20886;-56
2022/11/23 11:57:03;;;;;;;24.77;19.70;;;5.80;47.00;;;;;;4942793;29;20503;-54
2022/11/23 11:59:41;;;;;;;37.70;26.23;;;5.80;55.60;;;;;;4939362;29;21241;-55
2022/11/23 12:02:19;;;;;;;30.60;22.07;;;5.70;44.60;;;;;;4945834;29;20466;-55
2022/11/23 12:04:53;;;;;;;29.70;18.90;;;5.80;45.90;;;;;;4946733;29;20458;-54
2022/11/23 12:07:24;;;;;;;29.00;17.90;;;5.80;43.80;;;;;;4949465;29;20533;-55
2022/11/23 12:09:57;;;;;;;22.40;17.57;;;5.80;39.90;;;;;;4946657;29;20489;-54
2022/11/23 12:12:25;;;;;;;27.07;18.90;;;5.70;55.50;;;;;;4949098;28;20466;-55
2022/11/23 12:14:51;;;;;;;27.30;18.07;;;5.70;54.90;;;;;;4946778;29;20557;-53
2022/11/23 12:17:41;;;;;;;31.73;18.43;;;5.60;46.80;;;;;;4952639;28;20466;-54
2022/11/23 12:20:16;;;;;;;28.00;18.10;;;5.60;34.00;;;;;;4950460;29;20540;-54
2022/11/23 12:22:55;;;;;;;28.37;19.80;;;5.70;35.80;;;;;;4949023;28;20489;-54
2022/11/23 12:25:31;;;;;;;32.60;18.67;;;5.80;35.90;;;;;;4946045;28;20470;-55
2022/11/23 12:28:17;;;;;;;27.53;17.93;;;5.80;41.60;;;;;;4938658;28;20471;-53
2022/11/23 12:30:55;;;;;;;30.23;18.77;;;5.80;36.30;;;;;;4940645;29;21021;-54
2022/11/23 12:33:58;;;;;;;29.60;17.83;;;5.80;33.30;;;;;;4949123;29;20470;-54
2022/11/23 12:36:48;;;;;;;30.13;19.47;;;5.90;38.10;;;;;;4876049;29;20469;-55
2022/11/23 12:39:28;;;;;;;26.60;18.53;;;5.70;41.60;;;;;;4947661;29;20888;-54
2022/11/23 12:42:05;;;;;;;36.97;22.30;;;5.90;37.00;;;;;;4938819;29;20451;-54
2022/11/23 12:45:04;;;;;;;28.40;18.70;;;5.90;38.90;;;;;;4948185;29;20470;-54